Time;durP1;ratioP1;P1;durP2;ratioP2;P2;SDS_P1;SDS_P2;PMS_P1;PMS_P2;Temp;Humidity;BMP_temperature;BMP_pressure;BME280_temperature;BME280_humidity;BME280_pressure;Samples;Min_cycle;Max_cycle;Signal;HPM_P1;HPM_P2
2023/06/14 00:00:58;;;;;;;2.72;1.08;;;13.40;73.00;;;;;;4789661;29;20875;-77
2023/06/14 00:03:25;;;;;;;3.17;1.00;;;13.30;73.20;;;;;;4805713;29;20053;-74
2023/06/14 00:05:51;;;;;;;3.78;1.15;;;14.10;73.90;;;;;;4789429;29;20066;-74
2023/06/14 00:08:18;;;;;;;7.45;1.05;;;13.30;73.80;;;;;;4804134;29;20054;-76
2023/06/14 00:10:44;;;;;;;5.20;1.25;;;13.20;74.00;;;;;;4782952;29;20076;-75
2023/06/14 00:13:11;;;;;;;5.72;1.20;;;13.20;74.40;;;;;;4819449;29;20452;-75
2023/06/14 00:15:37;;;;;;;5.95;1.10;;;13.20;74.80;;;;;;4817467;29;20068;-74
2023/06/14 00:18:04;;;;;;;5.63;1.38;;;13.20;75.00;;;;;;4816784;29;20062;-76
2023/06/14 00:20:33;;;;;;;5.15;1.00;;;13.20;75.30;;;;;;4809893;29;20148;-77
2023/06/14 00:23:02;;;;;;;4.20;1.10;;;13.10;75.50;;;;;;4822906;29;20113;-74
2023/06/14 00:25:28;;;;;;;3.65;0.90;;;13.10;76.00;;;;;;4807681;29;20046;-78
2023/06/14 00:27:55;;;;;;;4.85;1.25;;;13.10;76.00;;;;;;4807029;29;20054;-77
2023/06/14 00:30:21;;;;;;;5.53;1.10;;;13.10;76.30;;;;;;4807447;29;20058;-76
2023/06/14 00:32:47;;;;;;;7.68;1.20;;;13.10;76.60;;;;;;4818657;29;20106;-75
2023/06/14 00:35:13;;;;;;;3.50;0.93;;;13.00;76.80;;;;;;4805619;29;20069;-74
2023/06/14 00:37:39;;;;;;;4.82;1.13;;;13.00;77.50;;;;;;4804479;29;20471;-75
2023/06/14 00:40:06;;;;;;;7.25;1.90;;;13.00;77.10;;;;;;4809973;29;20142;-75
2023/06/14 00:42:32;;;;;;;6.38;1.38;;;13.00;77.30;;;;;;4815009;29;20057;-74
2023/06/14 00:44:58;;;;;;;5.28;1.60;;;12.90;77.70;;;;;;4803603;29;20093;-77
2023/06/14 00:47:24;;;;;;;6.65;1.33;;;12.80;77.80;;;;;;4816856;29;20065;-77
2023/06/14 00:49:51;;;;;;;4.28;1.30;;;12.80;78.20;;;;;;4809727;29;20057;-76
2023/06/14 00:52:17;;;;;;;8.82;1.02;;;12.80;78.50;;;;;;4807777;29;20065;-77
2023/06/14 00:54:44;;;;;;;5.95;1.13;;;12.80;78.50;;;;;;4806774;29;20058;-74
2023/06/14 00:57:10;;;;;;;5.60;1.40;;;12.70;78.70;;;;;;4820832;29;20145;-75
2023/06/14 00:59:47;;;;;;;5.55;1.45;;;12.70;78.90;;;;;;4821118;29;20147;-74
2023/06/14 01:02:14;;;;;;;3.65;1.50;;;12.70;79.50;;;;;;4783147;24;20086;-77
2023/06/14 01:04:45;;;;;;;5.60;2.40;;;12.60;79.60;;;;;;4833759;23;20176;-75
2023/06/14 01:07:18;;;;;;;4.75;1.27;;;12.60;79.90;;;;;;4797762;23;20050;-77
2023/06/14 01:10:45;;;;;;;5.85;1.35;;;12.60;80.30;;;;;;4795103;24;20127;-75
2023/06/14 01:14:42;;;;;;;3.67;1.23;;;12.60;81.10;;;;;;4799178;29;20049;-76
2023/06/14 01:17:32;;;;;;;3.75;1.10;;;12.50;81.50;;;;;;4769869;24;20141;-75
2023/06/14 01:20:02;;;;;;;4.57;1.25;;;12.50;80.90;;;;;;4841923;23;20618;-76
2023/06/14 01:22:29;;;;;;;3.95;1.40;;;12.40;81.10;;;;;;4819953;24;20062;-75
2023/06/14 01:24:55;;;;;;;3.92;1.50;;;12.00;81.20;;;;;;4836097;24;20584;-75
2023/06/14 01:27:29;;;;;;;4.40;1.20;;;12.40;81.80;;;;;;4822352;23;20046;-77
2023/06/14 01:29:56;;;;;;;5.43;0.88;;;12.30;82.20;;;;;;4811347;23;20632;-80
2023/06/14 01:32:29;;;;;;;5.13;1.30;;;12.20;83.60;;;;;;4835171;23;20055;-76
2023/06/14 01:35:05;;;;;;;3.08;1.10;;;12.20;83.00;;;;;;4842833;24;20125;-77
2023/06/14 01:37:31;;;;;;;4.60;1.38;;;12.20;83.40;;;;;;4811879;24;20058;-78
2023/06/14 01:40:15;;;;;;;7.97;1.80;;;12.10;83.40;;;;;;4766612;24;20081;-73
2023/06/14 01:42:48;;;;;;;5.25;1.85;;;12.10;83.90;;;;;;4736222;29;20151;-75
2023/06/14 01:45:15;;;;;;;4.03;1.77;;;12.10;84.20;;;;;;4781800;29;20051;-76
2023/06/14 01:47:41;;;;;;;3.40;1.38;;;12.00;84.30;;;;;;4767220;29;20055;-81
2023/06/14 01:50:07;;;;;;;5.43;1.35;;;12.00;84.80;;;;;;4767709;29;20062;-81
2023/06/14 01:52:33;;;;;;;3.63;1.42;;;11.90;85.10;;;;;;4767530;29;20050;-73
2023/06/14 01:55:02;;;;;;;6.25;1.63;;;11.90;85.50;;;;;;4770606;29;20061;-75
2023/06/14 01:57:59;;;;;;;4.25;1.80;;;11.80;85.80;;;;;;4769681;29;20073;-74
2023/06/14 02:00:25;;;;;;;6.57;1.90;;;11.80;86.10;;;;;;4767452;29;20230;-75
2023/06/14 02:02:51;;;;;;;4.93;2.33;;;11.10;86.20;;;;;;4756029;29;20066;-75
2023/06/14 02:05:18;;;;;;;3.08;1.60;;;11.70;86.80;;;;;;4770305;29;20055;-75
2023/06/14 02:07:46;;;;;;;3.50;1.70;;;11.70;87.10;;;;;;4769042;29;20541;-76
2023/06/14 02:10:15;;;;;;;3.63;1.48;;;11.70;87.50;;;;;;4752460;29;20123;-77
2023/06/14 02:12:41;;;;;;;2.42;1.38;;;11.60;87.80;;;;;;4768888;29;20191;-76
2023/06/14 02:15:08;;;;;;;6.90;2.50;;;11.60;88.10;;;;;;4771261;29;20054;-73
2023/06/14 02:17:38;;;;;;;2.47;1.20;;;11.60;88.50;;;;;;4768941;29;20164;-73
2023/06/14 02:20:08;;;;;;;6.05;1.98;;;11.60;89.00;;;;;;4740109;29;20207;-74
2023/06/14 02:22:33;;;;;;;2.92;1.38;;;11.60;89.10;;;;;;4737966;29;20457;-74
2023/06/14 02:24:59;;;;;;;4.93;2.00;;;11.50;89.40;;;;;;4753746;29;20062;-75
2023/06/14 02:27:26;;;;;;;4.57;1.60;;;11.50;89.60;;;;;;4736797;29;20058;-76
2023/06/14 02:29:55;;;;;;;5.68;1.70;;;11.50;90.10;;;;;;4752405;29;20551;-75
2023/06/14 02:32:27;;;;;;;;;;;11.50;90.20;;;;;;4767175;29;20556;-75
2023/06/14 02:34:54;;;;;;;6.65;1.40;;;11.40;90.80;;;;;;4739035;29;19925;-75
2023/06/14 02:37:26;;;;;;;5.22;1.90;;;11.40;90.20;;;;;;4753479;29;20059;-76
2023/06/14 02:40:00;;;;;;;4.85;1.65;;;11.40;90.40;;;;;;4752711;29;20063;-76
2023/06/14 02:42:26;;;;;;;5.28;1.52;;;11.40;90.60;;;;;;4752091;29;20746;-75
2023/06/14 02:45:15;;;;;;;5.40;1.75;;;11.40;90.70;;;;;;4751410;29;20059;-76
2023/06/14 02:47:41;;;;;;;5.38;2.03;;;11.30;91.00;;;;;;4702849;30;20068;-75
2023/06/14 02:50:09;;;;;;;5.25;1.90;;;11.20;90.90;;;;;;4748962;30;20071;-72
2023/06/14 02:52:35;;;;;;;4.55;2.10;;;11.10;91.00;;;;;;4719971;30;20280;-73
2023/06/14 02:55:03;;;;;;;4.07;1.65;;;11.00;91.10;;;;;;4751313;30;20633;-74
2023/06/14 02:57:31;;;;;;;5.53;2.20;;;10.90;91.20;;;;;;4736453;30;20549;-75
2023/06/14 02:59:58;;;;;;;7.43;2.67;;;10.80;91.40;;;;;;4734632;30;20156;-77
2023/06/14 03:02:26;;;;;;;6.10;1.80;;;10.70;91.60;;;;;;4719311;30;20131;-72
2023/06/14 03:04:54;;;;;;;4.57;2.03;;;10.70;91.80;;;;;;4735425;30;20055;-74
2023/06/14 03:07:25;;;;;;;4.05;1.45;;;10.70;92.00;;;;;;4730605;30;20190;-75
2023/06/14 03:09:53;;;;;;;4.10;1.85;;;10.60;92.00;;;;;;4730709;30;20460;-76
2023/06/14 03:12:20;;;;;;;4.78;2.63;;;10.50;92.20;;;;;;4734244;29;20059;-75
2023/06/14 03:14:47;;;;;;;3.10;1.75;;;10.50;92.30;;;;;;4734351;30;20055;-75
2023/06/14 03:17:35;;;;;;;6.05;2.08;;;10.50;92.50;;;;;;4718069;30;20411;-75
2023/06/14 03:20:23;;;;;;;5.70;2.17;;;10.50;92.80;;;;;;4693826;30;20064;-76
2023/06/14 03:22:49;;;;;;;7.47;1.98;;;10.50;92.90;;;;;;4647999;30;20075;-75
2023/06/14 03:25:16;;;;;;;8.77;2.47;;;10.50;93.10;;;;;;4671785;30;20159;-74
2023/06/14 03:27:42;;;;;;;4.75;1.90;;;10.50;93.20;;;;;;4694236;30;20064;-74
2023/06/14 03:30:09;;;;;;;6.97;2.00;;;10.50;93.30;;;;;;4682020;30;20056;-74
2023/06/14 03:32:56;;;;;;;3.70;2.03;;;10.50;93.40;;;;;;4699092;30;20075;-75
2023/06/14 03:35:22;;;;;;;5.82;2.10;;;10.50;93.70;;;;;;4678940;30;20412;-75
2023/06/14 03:37:49;;;;;;;7.63;1.92;;;10.50;93.90;;;;;;4679254;30;20072;-75
2023/06/14 03:40:19;;;;;;;6.50;2.53;;;10.50;94.00;;;;;;4692733;30;20053;-74
2023/06/14 03:43:14;;;;;;;8.05;1.98;;;10.50;93.90;;;;;;4678835;30;20256;-74
2023/06/14 03:45:46;;;;;;;10.23;3.85;;;10.50;94.00;;;;;;4692571;30;20091;-75
2023/06/14 03:48:29;;;;;;;5.63;2.40;;;10.50;94.20;;;;;;4679127;30;20092;-74
2023/06/14 03:51:41;;;;;;;5.50;2.40;;;10.50;94.30;;;;;;4686348;30;20091;-72
2023/06/14 03:54:10;;;;;;;4.15;2.15;;;10.60;95.00;;;;;;4729916;29;20051;-72
2023/06/14 03:56:36;;;;;;;7.50;2.13;;;8.30;94.00;;;;;;4734732;29;20059;-73
2023/06/14 03:59:03;;;;;;;5.65;2.60;;;10.70;94.70;;;;;;4752365;29;20055;-75
2023/06/14 04:01:29;;;;;;;5.97;3.17;;;10.80;94.70;;;;;;4752542;29;20077;-72
2023/06/14 04:03:58;;;;;;;9.15;2.35;;;10.80;94.80;;;;;;4750397;29;20097;-74
2023/06/14 04:06:31;;;;;;;8.70;2.40;;;11.00;94.90;;;;;;4734317;29;20078;-73
2023/06/14 04:09:05;;;;;;;10.65;2.28;;;11.00;94.90;;;;;;4749275;29;20077;-75
2023/06/14 04:12:05;;;;;;;10.23;3.20;;;11.10;95.00;;;;;;4747491;29;20067;-74
2023/06/14 04:14:45;;;;;;;8.45;3.15;;;11.20;95.10;;;;;;4714954;30;20060;-73
2023/06/14 04:17:23;;;;;;;10.35;3.17;;;11.40;95.50;;;;;;4800292;29;20801;-74
2023/06/14 04:20:10;;;;;;;6.70;2.33;;;14.00;96.20;;;;;;4779546;29;20370;-73
2023/06/14 04:22:41;;;;;;;8.40;3.05;;;12.10;96.00;;;;;;4728502;29;20124;-74
2023/06/14 04:25:17;;;;;;;8.70;2.25;;;12.50;95.70;;;;;;4730801;29;20628;-75
2023/06/14 04:27:52;;;;;;;7.40;2.33;;;12.90;95.40;;;;;;4706161;29;20220;-74
2023/06/14 04:30:25;;;;;;;9.73;2.30;;;15.50;95.70;;;;;;4731135;29;20063;-74
2023/06/14 04:33:14;;;;;;;6.65;2.88;;;13.70;95.00;;;;;;4713190;30;20109;-74
2023/06/14 04:36:17;;;;;;;12.13;2.63;;;14.20;94.60;;;;;;4698814;30;20071;-73
2023/06/14 04:38:49;;;;;;;4.60;2.28;;;14.50;94.10;;;;;;4681908;30;20147;-75
2023/06/14 04:41:19;;;;;;;12.90;3.23;;;14.90;94.00;;;;;;4709540;30;20633;-73
2023/06/14 04:43:53;;;;;;;10.68;1.92;;;15.20;93.40;;;;;;4698117;30;20321;-73
2023/06/14 04:46:23;;;;;;;11.27;2.42;;;15.50;92.80;;;;;;4710958;29;20054;-74
2023/06/14 04:49:24;;;;;;;9.00;4.07;;;15.60;92.20;;;;;;4784835;29;20070;-76
2023/06/14 04:52:01;;;;;;;5.82;1.80;;;15.70;91.20;;;;;;4748683;29;20065;-76
2023/06/14 04:54:41;;;;;;;4.78;1.65;;;15.60;91.00;;;;;;4752176;29;20063;-75
2023/06/14 04:57:34;;;;;;;6.90;1.85;;;15.60;90.70;;;;;;4756001;29;20061;-78
2023/06/14 05:00:26;;;;;;;4.60;2.30;;;15.60;90.50;;;;;;4761634;29;20054;-77
2023/06/14 05:02:53;;;;;;;6.78;2.33;;;15.70;90.10;;;;;;4785800;29;20046;-77
2023/06/14 05:05:19;;;;;;;4.82;1.77;;;15.80;89.90;;;;;;4785892;29;20058;-77
2023/06/14 05:07:51;;;;;;;3.45;1.73;;;15.80;89.40;;;;;;4784538;29;20068;-76
2023/06/14 05:10:26;;;;;;;5.35;2.08;;;16.00;89.20;;;;;;4779345;29;20082;-77
2023/06/14 05:12:52;;;;;;;3.92;1.95;;;16.30;88.80;;;;;;4778476;29;20317;-75
2023/06/14 05:15:25;;;;;;;4.05;1.67;;;16.50;87.90;;;;;;4778240;29;20117;-75
2023/06/14 05:18:13;;;;;;;5.72;3.00;;;16.60;86.80;;;;;;4745310;29;20526;-78
2023/06/14 05:20:58;;;;;;;6.65;2.00;;;16.70;86.30;;;;;;4678959;30;20543;-75
2023/06/14 05:23:48;;;;;;;5.05;1.85;;;16.70;86.50;;;;;;4677104;30;20064;-75
2023/06/14 05:26:20;;;;;;;6.32;2.00;;;16.80;85.70;;;;;;4661618;30;20756;-76
2023/06/14 05:29:05;;;;;;;5.03;1.42;;;16.80;84.80;;;;;;4639964;30;20462;-77
2023/06/14 05:31:33;;;;;;;5.75;1.77;;;18.20;85.30;;;;;;4627845;30;20157;-77
2023/06/14 05:34:04;;;;;;;7.22;2.03;;;16.90;84.10;;;;;;4623327;30;20066;-77
2023/06/14 05:36:37;;;;;;;4.50;2.03;;;17.00;83.70;;;;;;4610310;30;20073;-77
2023/06/14 05:39:16;;;;;;;5.30;1.60;;;17.00;83.10;;;;;;4624094;30;20313;-79
2023/06/14 05:41:51;;;;;;;7.85;2.35;;;17.20;82.90;;;;;;4621053;30;20058;-77
2023/06/14 05:44:28;;;;;;;5.60;1.58;;;17.40;83.00;;;;;;4639529;30;20054;-75
2023/06/14 05:47:13;;;;;;;5.43;2.30;;;17.80;82.50;;;;;;4626554;30;20065;-76
2023/06/14 05:49:58;;;;;;;4.18;1.88;;;18.50;81.80;;;;;;4638522;30;20176;-75
2023/06/14 05:52:36;;;;;;;5.50;1.85;;;19.40;79.50;;;;;;4655953;30;20093;-77
2023/06/14 05:55:23;;;;;;;6.18;1.77;;;20.20;76.80;;;;;;4641498;30;20141;-78
2023/06/14 05:58:04;;;;;;;5.40;2.13;;;21.20;74.20;;;;;;4619278;30;20262;-75
2023/06/14 06:00:48;;;;;;;4.95;1.67;;;22.20;72.60;;;;;;4656268;30;20069;-79
2023/06/14 06:03:16;;;;;;;6.68;1.77;;;23.40;69.20;;;;;;4664457;30;20099;-75
2023/06/14 06:05:45;;;;;;;5.95;1.65;;;24.20;67.20;;;;;;4664507;30;20057;-80
2023/06/14 06:08:21;;;;;;;4.72;1.17;;;25.30;65.00;;;;;;4674164;30;20091;-77
2023/06/14 06:10:47;;;;;;;3.33;1.35;;;26.30;62.70;;;;;;4675717;30;20512;-77
2023/06/14 06:13:22;;;;;;;3.42;1.23;;;26.90;60.50;;;;;;4676999;30;20067;-76
2023/06/14 06:15:56;;;;;;;3.20;1.30;;;27.80;57.90;;;;;;4677448;30;20297;-77
2023/06/14 06:18:28;;;;;;;3.88;1.40;;;28.50;56.40;;;;;;4675405;30;20286;-75
2023/06/14 06:20:59;;;;;;;4.57;1.95;;;29.20;54.80;;;;;;4678820;30;20598;-77
2023/06/14 06:23:29;;;;;;;3.72;0.80;;;29.90;53.40;;;;;;4676901;30;20061;-76
2023/06/14 06:25:59;;;;;;;4.30;1.40;;;30.30;51.40;;;;;;4743502;29;20095;-78
2023/06/14 06:28:29;;;;;;;3.42;1.00;;;30.70;50.40;;;;;;4714352;30;20606;-76
2023/06/14 06:30:55;;;;;;;5.78;1.20;;;31.30;49.30;;;;;;4711998;30;20055;-76
2023/06/14 06:33:23;;;;;;;2.58;0.80;;;31.50;48.00;;;;;;4760387;29;20066;-77
2023/06/14 06:35:54;;;;;;;4.38;1.25;;;32.00;47.40;;;;;;4761775;29;20063;-77
2023/06/14 06:38:20;;;;;;;;;;;32.40;46.00;;;;;;4738508;29;20603;-75
2023/06/14 06:41:18;;;;;;;2.63;1.27;;;32.60;45.80;;;;;;4770610;29;20356;-76
2023/06/14 06:43:50;;;;;;;3.92;1.48;;;32.80;44.00;;;;;;4767438;29;20051;-76
2023/06/14 06:46:19;;;;;;;3.60;0.98;;;33.40;44.70;;;;;;4751131;29;20055;-82
2023/06/14 06:48:45;;;;;;;3.38;1.08;;;33.70;43.70;;;;;;4754308;29;20058;-75
2023/06/14 06:51:12;;;;;;;5.75;1.00;;;33.70;42.80;;;;;;4766218;29;20097;-74
2023/06/14 06:53:43;;;;;;;2.63;1.08;;;34.00;42.30;;;;;;4757219;29;20063;-75
2023/06/14 06:56:11;;;;;;;3.65;0.93;;;34.40;41.30;;;;;;4737971;29;20376;-74
2023/06/14 06:59:05;;;;;;;4.00;1.02;;;34.50;41.50;;;;;;4761838;29;20057;-76
2023/06/14 07:01:33;;;;;;;2.67;1.00;;;35.20;40.20;;;;;;4784602;29;20243;-78
2023/06/14 07:04:01;;;;;;;4.75;0.90;;;35.60;40.00;;;;;;4770216;29;20058;-74
2023/06/14 07:06:28;;;;;;;5.00;1.65;;;35.80;39.20;;;;;;4751146;29;20158;-78
2023/06/14 07:08:54;;;;;;;2.15;0.70;;;35.70;38.60;;;;;;4752238;29;20059;-78
2023/06/14 07:11:27;;;;;;;3.40;0.98;;;35.90;38.60;;;;;;4717741;30;20063;-77
2023/06/14 07:17:36;;;;;;;3.22;0.80;;;36.20;37.60;;;;;;4764782;30;20617;-79
2023/06/14 07:20:35;;;;;;;3.17;1.13;;;36.20;38.00;;;;;;4742281;30;20233;-77
2023/06/14 07:23:16;;;;;;;4.30;1.13;;;34.90;36.70;;;;;;4741068;30;20051;-76
2023/06/14 07:25:55;;;;;;;3.40;0.70;;;36.30;37.60;;;;;;4742272;30;20369;-79
2023/06/14 07:28:36;;;;;;;6.07;0.75;;;36.10;37.00;;;;;;4744939;30;20343;-78
2023/06/14 07:31:06;;;;;;;2.15;0.73;;;36.00;36.70;;;;;;4757448;30;20558;-76
2023/06/14 07:33:36;;;;;;;2.63;1.00;;;35.90;36.90;;;;;;4739838;30;20059;-76
2023/06/14 07:36:21;;;;;;;4.22;1.00;;;35.90;36.80;;;;;;4735885;30;20319;-76
2023/06/14 07:38:51;;;;;;;4.90;0.90;;;36.60;36.60;;;;;;4755708;29;20076;-77
2023/06/14 07:41:18;;;;;;;4.50;0.90;;;36.20;36.30;;;;;;4752028;29;20603;-78
2023/06/14 07:43:47;;;;;;;3.92;1.08;;;36.20;35.70;;;;;;4766835;29;20733;-77
2023/06/14 07:49:55;;;;;;;3.33;0.90;;;36.20;36.70;;;;;;4786921;29;20053;-78
2023/06/14 07:52:22;;;;;;;2.80;0.80;;;36.30;36.40;;;;;;4766491;29;20056;-80
2023/06/14 07:54:52;;;;;;;3.50;0.98;;;36.10;36.00;;;;;;4772779;29;20065;-77
2023/06/14 07:57:39;;;;;;;2.83;0.73;;;35.70;35.90;;;;;;4766090;29;20070;-81
2023/06/14 08:00:28;;;;;;;4.82;1.00;;;37.40;36.70;;;;;;4788023;29;20058;-74
2023/06/14 08:02:58;;;;;;;5.28;0.70;;;36.10;35.10;;;;;;4782827;29;20059;-76
2023/06/14 08:05:27;;;;;;;2.40;0.90;;;36.00;35.40;;;;;;4787074;29;20058;-73
2023/06/14 08:07:53;;;;;;;2.03;0.80;;;36.20;35.20;;;;;;4788830;29;20065;-78
2023/06/14 08:10:26;;;;;;;1.83;0.60;;;35.80;34.80;;;;;;4794763;29;20046;-73
2023/06/14 08:13:21;;;;;;;2.40;0.90;;;35.50;35.10;;;;;;4798459;29;20333;-77
2023/06/14 08:16:00;;;;;;;1.83;0.80;;;35.60;35.00;;;;;;4797485;29;20166;-77
2023/06/14 08:19:30;;;;;;;4.20;0.75;;;35.50;35.70;;;;;;4779961;29;20146;-76
2023/06/14 08:23:05;;;;;;;3.15;0.90;;;35.80;35.50;;;;;;4777417;29;20149;-75
2023/06/14 08:25:35;;;;;;;3.33;0.77;;;36.10;35.50;;;;;;4665278;30;20045;-76
2023/06/14 08:28:01;;;;;;;6.32;0.95;;;36.20;35.50;;;;;;4666213;30;20229;-73
2023/06/14 08:30:32;;;;;;;3.22;0.90;;;35.30;34.50;;;;;;4665782;30;20092;-74
2023/06/14 08:33:43;;;;;;;3.35;0.70;;;36.40;35.50;;;;;;4681971;30;20094;-77
2023/06/14 08:36:17;;;;;;;4.53;1.00;;;36.40;35.20;;;;;;4637562;30;20516;-75
2023/06/14 08:38:55;;;;;;;3.13;0.95;;;36.70;34.70;;;;;;4648741;30;20383;-78
2023/06/14 08:41:29;;;;;;;2.70;1.10;;;36.80;34.30;;;;;;4646942;30;20100;-74
2023/06/14 08:44:03;;;;;;;3.15;0.70;;;36.90;35.00;;;;;;4647561;30;20145;-78
2023/06/14 08:46:42;;;;;;;1.65;0.57;;;37.00;34.70;;;;;;4660400;30;20064;-75
2023/06/14 08:49:17;;;;;;;3.33;0.90;;;37.50;34.70;;;;;;4660138;30;20127;-74
2023/06/14 08:52:07;;;;;;;4.28;0.75;;;37.80;34.20;;;;;;4664071;30;20064;-79
2023/06/14 08:54:43;;;;;;;2.30;0.80;;;37.80;34.20;;;;;;4663836;30;20642;-80
2023/06/14 08:57:16;;;;;;;3.50;0.90;;;37.60;33.00;;;;;;4645582;30;20062;-81
2023/06/14 08:59:53;;;;;;;2.67;0.60;;;36.80;33.30;;;;;;4667110;30;20060;-77
2023/06/14 09:02:35;;;;;;;4.07;0.65;;;35.90;34.20;;;;;;4717510;29;20052;-78
2023/06/14 09:09:30;;;;;;;2.00;0.55;;;35.90;34.60;;;;;;4769023;30;20070;-76
2023/06/14 09:12:48;;;;;;;3.80;0.70;;;35.80;34.50;;;;;;4727839;30;20055;-80
2023/06/14 09:19:04;;;;;;;3.38;0.60;;;35.70;36.10;;;;;;4753286;30;20281;-79
2023/06/14 09:22:11;;;;;;;2.50;0.75;;;36.00;36.10;;;;;;4758861;30;20063;-77
2023/06/14 09:24:42;;;;;;;3.22;0.73;;;36.20;34.60;;;;;;4743918;30;20073;-77
2023/06/14 09:27:27;;;;;;;2.40;0.60;;;36.30;34.30;;;;;;4747090;29;20070;-77
2023/06/14 09:29:55;;;;;;;3.92;0.88;;;36.30;34.50;;;;;;4781652;29;20141;-76
2023/06/14 09:32:31;;;;;;;3.92;0.60;;;36.10;35.10;;;;;;4779534;29;20727;-77
2023/06/14 09:38:04;;;;;;;3.92;0.77;;;36.40;34.70;;;;;;4773932;29;20086;-76
2023/06/14 09:40:43;;;;;;;3.65;0.50;;;36.60;35.30;;;;;;4736065;30;20060;-75
2023/06/14 09:43:09;;;;;;;2.70;0.70;;;36.50;35.20;;;;;;4727437;30;20055;-79
2023/06/14 09:45:39;;;;;;;4.57;0.63;;;36.10;34.60;;;;;;4729531;29;20082;-76
2023/06/14 09:48:20;;;;;;;3.05;0.60;;;36.20;34.70;;;;;;4719932;30;20207;-77
2023/06/14 09:51:22;;;;;;;5.03;0.55;;;36.30;35.00;;;;;;4711439;30;20067;-81
2023/06/14 09:54:09;;;;;;;5.30;0.77;;;36.20;34.20;;;;;;4686549;30;20805;-76
2023/06/14 09:56:45;;;;;;;4.18;0.82;;;35.90;34.60;;;;;;4697697;30;20172;-77
2023/06/14 09:59:29;;;;;;;3.05;0.70;;;35.10;34.60;;;;;;4694846;30;20104;-74
2023/06/14 10:02:18;;;;;;;3.85;1.30;;;35.00;35.80;;;;;;4700064;30;20064;-81
2023/06/14 10:05:08;;;;;;;3.40;0.50;;;35.00;34.90;;;;;;4714149;30;20059;-75
2023/06/14 10:11:47;;;;;;;3.55;0.60;;;34.30;35.00;;;;;;4688333;30;20087;-78
2023/06/14 10:14:18;;;;;;;4.15;0.60;;;33.70;35.40;;;;;;4667469;30;20061;-80
2023/06/14 10:17:13;;;;;;;1.83;0.30;;;33.70;35.90;;;;;;4652794;30;20096;-73
2023/06/14 10:20:11;;;;;;;1.55;0.55;;;33.80;36.10;;;;;;4667887;30;20069;-79
2023/06/14 10:23:00;;;;;;;2.10;0.40;;;33.90;35.80;;;;;;4646876;30;20896;-78
2023/06/14 10:26:01;;;;;;;3.22;0.40;;;33.80;36.60;;;;;;4657226;30;20125;-72
2023/06/14 10:28:41;;;;;;;7.00;0.65;;;33.50;34.90;;;;;;4653621;30;20073;-77
2023/06/14 10:31:16;;;;;;;3.85;0.43;;;33.00;35.60;;;;;;4650733;30;20056;-76
2023/06/14 10:33:59;;;;;;;2.78;0.30;;;33.00;35.90;;;;;;4627692;30;20094;-78
2023/06/14 10:36:36;;;;;;;1.45;0.47;;;33.10;35.80;;;;;;4616875;30;20542;-82
2023/06/14 10:39:20;;;;;;;2.80;0.60;;;33.00;35.50;;;;;;4623590;30;20238;-77
2023/06/14 10:42:19;;;;;;;4.43;0.40;;;32.40;35.40;;;;;;4619275;30;20070;-76
2023/06/14 10:48:44;;;;;;;2.47;0.55;;;31.30;37.40;;;;;;4569614;31;20151;-78
2023/06/14 10:51:22;;;;;;;6.38;0.47;;;30.20;37.40;;;;;;4571917;31;20609;-77
2023/06/14 10:53:51;;;;;;;2.90;0.60;;;29.00;39.20;;;;;;4588196;31;20070;-84
2023/06/14 10:56:36;;;;;;;4.15;0.77;;;28.00;40.20;;;;;;4586911;31;20150;-76
2023/06/14 10:59:09;;;;;;;3.75;0.63;;;27.20;40.90;;;;;;4590515;31;20170;-81
2023/06/14 11:02:00;;;;;;;2.38;0.50;;;26.60;43.30;;;;;;4602763;31;20058;-77
2023/06/14 11:04:52;;;;;;;6.78;1.02;;;26.10;43.20;;;;;;4587724;31;20703;-79
2023/06/14 11:08:04;;;;;;;2.80;0.40;;;25.90;43.90;;;;;;4587417;30;20063;-79
2023/06/14 11:10:43;;;;;;;2.53;1.23;;;25.80;45.30;;;;;;4629647;30;20166;-80
2023/06/14 11:13:11;;;;;;;2.78;0.80;;;25.60;45.70;;;;;;4642813;30;20067;-80
2023/06/14 11:15:43;;;;;;;6.55;0.55;;;25.50;45.70;;;;;;4653270;30;20069;-77
2023/06/14 11:18:09;;;;;;;4.88;0.40;;;25.40;46.30;;;;;;4669996;30;20778;-75
2023/06/14 11:20:36;;;;;;;2.55;0.68;;;25.30;46.00;;;;;;4686590;30;20064;-76
2023/06/14 11:23:04;;;;;;;2.70;0.70;;;25.10;45.90;;;;;;4685573;30;20056;-82
2023/06/14 11:25:36;;;;;;;4.00;0.60;;;24.80;46.50;;;;;;4688870;30;20502;-80
2023/06/14 11:28:03;;;;;;;1.83;0.60;;;24.60;46.50;;;;;;4701316;30;21061;-80
2023/06/14 11:30:39;;;;;;;4.75;0.60;;;24.50;46.60;;;;;;4674786;30;20064;-76
2023/06/14 11:33:28;;;;;;;1.95;0.55;;;24.40;47.30;;;;;;4689622;30;20133;-76
2023/06/14 11:35:57;;;;;;;3.92;0.93;;;24.50;48.40;;;;;;4670421;30;20083;-79
2023/06/14 11:38:32;;;;;;;2.45;0.68;;;24.40;47.70;;;;;;4692024;30;20060;-76
2023/06/14 11:41:04;;;;;;;3.47;0.60;;;24.40;47.60;;;;;;4696821;30;21135;-78
2023/06/14 11:43:55;;;;;;;2.58;0.73;;;24.50;48.10;;;;;;4699033;30;20087;-75
2023/06/14 11:46:44;;;;;;;1.90;0.50;;;24.60;48.30;;;;;;4678004;30;20061;-81
2023/06/14 11:49:15;;;;;;;2.65;0.80;;;24.40;48.10;;;;;;4677589;30;20802;-83
2023/06/14 11:54:24;;;;;;;2.10;0.50;;;24.40;47.60;;;;;;4805514;29;20578;-82
2023/06/14 11:57:12;;;;;;;7.03;1.05;;;24.30;46.90;;;;;;4793759;29;20974;-75
2023/06/14 11:59:52;;;;;;;2.88;0.60;;;24.20;47.90;;;;;;4796354;29;20042;-81
2023/06/14 12:02:19;;;;;;;4.93;0.85;;;24.10;47.60;;;;;;4791079;29;20942;-74
2023/06/14 12:05:13;;;;;;;2.58;0.60;;;24.10;48.00;;;;;;4790838;29;20852;-77
2023/06/14 12:07:42;;;;;;;4.05;0.98;;;24.20;49.10;;;;;;4788063;29;20054;-80
2023/06/14 12:10:14;;;;;;;1.52;0.68;;;24.20;48.30;;;;;;4799245;29;20065;-79
2023/06/14 12:12:50;;;;;;;1.98;0.60;;;24.20;47.20;;;;;;4777734;29;20069;-76
2023/06/14 12:15:23;;;;;;;2.40;0.52;;;22.40;46.90;;;;;;4798009;29;21017;-79
2023/06/14 12:17:50;;;;;;;2.45;0.50;;;24.20;47.80;;;;;;4790316;29;20117;-74
2023/06/14 12:20:19;;;;;;;3.80;0.75;;;24.30;48.40;;;;;;4801216;29;20118;-78
2023/06/14 12:22:58;;;;;;;5.40;1.10;;;24.50;48.30;;;;;;4787349;29;20049;-79
2023/06/14 12:25:36;;;;;;;1.85;0.75;;;24.60;48.20;;;;;;4795146;29;20061;-76
2023/06/14 12:28:09;;;;;;;4.97;0.68;;;24.60;47.00;;;;;;4789567;29;20295;-76
2023/06/14 12:33:20;;;;;;;5.72;0.80;;;24.20;47.00;;;;;;4799907;29;20069;-81
2023/06/14 12:35:47;;;;;;;3.70;0.63;;;24.20;47.60;;;;;;4787073;29;20195;-82
2023/06/14 12:38:18;;;;;;;2.45;0.75;;;24.30;48.80;;;;;;4795308;29;20684;-78
2023/06/14 12:40:58;;;;;;;2.92;0.70;;;24.30;48.20;;;;;;4793414;29;20900;-78
2023/06/14 12:43:43;;;;;;;3.10;0.50;;;24.30;47.50;;;;;;4807915;29;20056;-80
2023/06/14 12:46:12;;;;;;;2.85;0.57;;;24.40;47.30;;;;;;4774888;29;20066;-77
2023/06/14 12:48:39;;;;;;;3.25;0.68;;;24.40;47.90;;;;;;4761963;29;20058;-77
2023/06/14 12:51:10;;;;;;;2.25;0.70;;;24.40;48.20;;;;;;4770617;29;20171;-82
2023/06/14 12:53:36;;;;;;;2.65;0.50;;;24.50;47.80;;;;;;4763976;29;20058;-78
2023/06/14 12:56:08;;;;;;;2.95;0.60;;;24.50;47.60;;;;;;4786094;29;20179;-74
2023/06/14 12:58:39;;;;;;;2.92;0.50;;;24.40;48.10;;;;;;4758486;29;20066;-78
2023/06/14 13:01:50;;;;;;;3.05;0.50;;;24.50;47.60;;;;;;4759409;29;20046;-75
2023/06/14 13:04:33;;;;;;;3.97;0.75;;;24.70;47.90;;;;;;4806618;29;20109;-80
2023/06/14 13:07:21;;;;;;;1.77;1.05;;;24.90;46.80;;;;;;4786677;29;20062;-77
2023/06/14 13:10:09;;;;;;;3.55;0.90;;;25.00;47.30;;;;;;4755677;29;20054;-78
2023/06/14 13:12:57;;;;;;;4.20;0.68;;;25.00;47.20;;;;;;4790122;29;20085;-76
2023/06/14 13:15:29;;;;;;;4.80;0.77;;;24.80;47.40;;;;;;4752550;29;20310;-76
2023/06/14 13:18:02;;;;;;;2.72;0.70;;;24.70;47.90;;;;;;4754359;29;20798;-77
2023/06/14 13:20:32;;;;;;;1.58;0.45;;;24.60;47.50;;;;;;4749322;30;20063;-76
2023/06/14 13:23:07;;;;;;;5.00;1.13;;;24.50;47.40;;;;;;4747500;30;20066;-79
2023/06/14 13:25:39;;;;;;;2.45;0.63;;;24.60;48.10;;;;;;4738199;30;20908;-77
2023/06/14 13:28:14;;;;;;;3.33;0.60;;;24.70;47.50;;;;;;4737939;30;20534;-80
2023/06/14 13:30:44;;;;;;;1.30;0.50;;;24.80;47.90;;;;;;4735661;30;20151;-77
2023/06/14 13:33:11;;;;;;;1.38;0.60;;;24.90;47.20;;;;;;4731625;30;20802;-76
2023/06/14 13:35:37;;;;;;;2.00;0.55;;;25.00;47.30;;;;;;4729650;30;20055;-78
2023/06/14 13:38:09;;;;;;;3.75;0.60;;;25.10;47.70;;;;;;4713620;30;20152;-74
2023/06/14 13:40:46;;;;;;;3.30;0.65;;;25.00;47.20;;;;;;4720942;30;20056;-77
2023/06/14 13:43:19;;;;;;;4.25;0.77;;;24.80;46.80;;;;;;4726291;29;20704;-76
2023/06/14 13:46:31;;;;;;;3.50;0.38;;;23.60;46.50;;;;;;4805828;29;20518;-80
2023/06/14 13:48:57;;;;;;;1.20;0.43;;;24.80;47.60;;;;;;4788233;29;20061;-76
2023/06/14 13:51:46;;;;;;;2.45;0.80;;;24.90;47.00;;;;;;4787668;29;20061;-79
2023/06/14 13:56:51;;;;;;;2.65;0.70;;;25.30;46.70;;;;;;4037347;24;21405;-82
2023/06/14 14:01:53;;;;;;;2.28;0.63;;;25.50;46.30;;;;;;4804777;24;20070;-75
2023/06/14 14:04:19;;;;;;;2.38;0.50;;;25.60;46.70;;;;;;4750051;24;20060;-77
2023/06/14 14:06:48;;;;;;;2.45;0.57;;;25.70;46.30;;;;;;4742382;29;20059;-75
2023/06/14 14:09:14;;;;;;;2.13;0.60;;;25.90;46.20;;;;;;4738211;29;20143;-76